Time;durP1;ratioP1;P1;durP2;ratioP2;P2;SDS_P1;SDS_P2;PMS_P1;PMS_P2;Temp;Humidity;BMP_temperature;BMP_pressure;BME280_temperature;BME280_humidity;BME280_pressure;Samples;Min_cycle;Max_cycle;Signal;HPM_P1;HPM_P2
2024/01/25 00:00:01;;;;;;;1999.90;999.90;;;;;;;-0.66;82.18;96569.38;5116011;28;20043;-67
2024/01/25 00:02:28;;;;;;;1999.90;999.90;;;;;;;-0.61;81.90;96574.56;5115981;28;20466;-64
2024/01/25 00:04:56;;;;;;;1999.90;999.90;;;;;;;-0.59;81.55;96562.59;5115999;28;20039;-67
2024/01/25 00:07:23;;;;;;;1999.90;999.90;;;;;;;-0.60;80.95;96560.00;5115769;28;20047;-67
2024/01/25 00:09:50;;;;;;;1999.90;999.90;;;;;;;-0.62;80.90;96544.56;5115858;28;20243;-63
2024/01/25 00:12:17;;;;;;;1999.90;999.90;;;;;;;-0.62;80.42;96533.44;5115790;28;20180;-66
2024/01/25 00:14:44;;;;;;;1999.90;999.90;;;;;;;-0.71;80.43;96527.41;5115616;28;20489;-66
2024/01/25 00:17:11;;;;;;;1999.90;999.90;;;;;;;-0.78;80.75;96539.31;5115740;28;20055;-65
2024/01/25 00:19:38;;;;;;;1999.90;999.90;;;;;;;-0.83;80.67;96541.00;5115663;28;20093;-69
2024/01/25 00:22:06;;;;;;;1999.90;999.90;;;;;;;-0.87;80.73;96540.97;5115596;28;20055;-67
2024/01/25 00:24:34;;;;;;;1999.90;999.90;;;;;;;-0.90;81.23;96557.25;5115460;28;20054;-65
2024/01/25 00:27:01;;;;;;;1999.90;999.90;;;;;;;-0.94;81.63;96556.34;5115365;28;20056;-66
2024/01/25 00:29:27;;;;;;;1999.90;999.90;;;;;;;-0.96;82.19;96562.31;5115420;28;20039;-65
2024/01/25 00:31:54;;;;;;;1999.90;999.90;;;;;;;-1.00;82.28;96563.16;5115270;28;20081;-62
2024/01/25 00:34:21;;;;;;;1999.90;999.90;;;;;;;-0.98;82.54;96546.03;5115281;28;20071;-66
2024/01/25 00:36:49;;;;;;;1999.90;999.90;;;;;;;-1.03;82.14;96544.28;5115235;28;20130;-66
2024/01/25 00:39:18;;;;;;;1999.90;999.90;;;;;;;-1.09;82.35;96549.38;5115231;28;20055;-66
2024/01/25 00:41:47;;;;;;;1999.90;999.90;;;;;;;-0.98;82.21;96541.75;5115165;28;20054;-65
2024/01/25 00:44:18;;;;;;;1999.90;999.90;;;;;;;-0.95;82.33;96540.91;5114933;28;20096;-64
2024/01/25 00:46:46;;;;;;;1999.90;999.90;;;;;;;-0.97;81.72;96529.78;5114550;28;20057;-67
2024/01/25 00:49:14;;;;;;;1999.90;999.90;;;;;;;-0.97;81.19;96524.66;5115159;28;20074;-65
2024/01/25 00:51:47;;;;;;;1999.90;999.90;;;;;;;-0.97;80.99;96512.66;5115018;28;20101;-65
2024/01/25 00:54:15;;;;;;;1999.90;999.90;;;;;;;-1.00;80.76;96514.34;5114769;28;20048;-66
2024/01/25 00:56:44;;;;;;;1999.90;999.90;;;;;;;-1.12;81.27;96515.13;5115040;28;20128;-65
2024/01/25 00:59:12;;;;;;;1999.90;999.90;;;;;;;-1.17;81.33;96504.81;5114877;28;20039;-63
2024/01/25 01:01:40;;;;;;;1999.90;999.90;;;;;;;-1.24;81.87;96475.66;5114743;28;20067;-63
2024/01/25 01:04:08;;;;;;;1999.90;999.90;;;;;;;-1.30;82.39;96470.47;5114780;28;20069;-64
2024/01/25 01:06:36;;;;;;;1999.90;999.90;;;;;;;-1.38;82.45;96465.28;5114596;28;20047;-66
2024/01/25 01:09:03;;;;;;;1999.90;999.90;;;;;;;-1.45;84.05;96482.31;5114539;28;20047;-65
2024/01/25 01:11:30;;;;;;;1999.90;999.90;;;;;;;-1.34;83.86;96490.13;5114568;28;20083;-65
2024/01/25 01:13:59;;;;;;;1999.90;999.90;;;;;;;-1.36;83.49;96496.09;5096295;28;20130;-68
2024/01/25 01:16:26;;;;;;;1999.90;999.90;;;;;;;-1.41;83.79;96490.94;5114493;28;20047;-67
2024/01/25 01:18:53;;;;;;;1999.90;999.90;;;;;;;-1.36;83.46;96499.50;5114406;28;20089;-68
2024/01/25 01:21:21;;;;;;;1999.90;999.90;;;;;;;-1.33;83.61;96493.56;5114579;28;20056;-67
2024/01/25 01:23:46;;;;;;;1999.90;999.90;;;;;;;-1.35;83.83;96480.72;5114367;28;20043;-65
2024/01/25 01:26:13;;;;;;;1999.90;999.90;;;;;;;-1.32;83.13;96485.00;5114273;28;20054;-66
2024/01/25 01:28:40;;;;;;;1999.90;999.90;;;;;;;-1.30;83.37;96460.19;5114128;28;20482;-69
2024/01/25 01:31:09;;;;;;;1999.90;999.90;;;;;;;-1.29;83.11;96447.38;5114264;28;20039;-69
2024/01/25 01:33:36;;;;;;;1999.90;999.90;;;;;;;-1.29;82.99;96452.50;5114204;28;20039;-66
2024/01/25 01:36:03;;;;;;;1999.90;999.90;;;;;;;-1.32;83.40;96451.63;5114153;28;20104;-64
2024/01/25 01:38:29;;;;;;;1999.90;999.90;;;;;;;-1.25;83.61;96444.81;5114102;28;20048;-63
2024/01/25 01:40:56;;;;;;;1999.90;999.90;;;;;;;-1.33;83.76;96458.47;5113978;28;20390;-67
2024/01/25 01:43:24;;;;;;;1999.90;999.90;;;;;;;-1.27;83.66;96455.94;5114053;28;20044;-63
2024/01/25 01:45:51;;;;;;;1999.90;999.90;;;;;;;-1.34;83.34;96441.34;5113979;28;20047;-65
2024/01/25 01:48:19;;;;;;;1999.90;999.90;;;;;;;-1.35;83.65;96441.34;5114008;28;20058;-67
2024/01/25 01:50:46;;;;;;;1999.90;999.90;;;;;;;-1.32;83.78;96423.41;5113999;28;20048;-66
2024/01/25 01:53:14;;;;;;;1999.90;999.90;;;;;;;-1.31;84.08;96418.28;5113689;28;20051;-66
2024/01/25 01:55:41;;;;;;;1999.90;999.90;;;;;;;-1.24;84.03;96428.59;5113867;28;20043;-67
2024/01/25 01:58:08;;;;;;;1999.90;999.90;;;;;;;-1.22;84.27;96403.78;5113852;28;20043;-64
2024/01/25 02:00:36;;;;;;;1999.90;999.90;;;;;;;-1.21;84.33;96396.09;5113709;28;20052;-65
2024/01/25 02:03:03;;;;;;;1999.90;999.90;;;;;;;-1.24;84.06;96415.75;5113609;28;20054;-66
2024/01/25 02:05:32;;;;;;;1999.90;999.90;;;;;;;-1.18;84.69;96398.66;5113614;28;20047;-63
2024/01/25 02:07:59;;;;;;;1999.90;999.90;;;;;;;-1.27;83.92;96407.19;5113555;28;20069;-65
2024/01/25 02:10:26;;;;;;;1999.90;999.90;;;;;;;-1.23;84.07;96381.53;5113560;28;20496;-64
2024/01/25 02:12:53;;;;;;;1999.90;999.90;;;;;;;-1.23;84.53;96377.25;5113661;28;20044;-66
2024/01/25 02:15:20;;;;;;;1999.90;999.90;;;;;;;-1.16;84.50;96375.56;5113548;28;20105;-67
2024/01/25 02:17:47;;;;;;;1999.90;999.90;;;;;;;-1.11;84.66;96373.03;5113533;28;20047;-66
2024/01/25 02:20:14;;;;;;;1999.90;999.90;;;;;;;-1.02;84.73;96348.25;5113420;28;20079;-65
2024/01/25 02:22:43;;;;;;;1999.90;999.90;;;;;;;-1.02;84.77;96362.81;5113403;28;20104;-66
2024/01/25 02:25:10;;;;;;;1999.90;999.90;;;;;;;-0.99;85.20;96361.97;5113427;28;20044;-64
2024/01/25 02:27:38;;;;;;;1999.90;999.90;;;;;;;-0.94;84.41;96357.69;5113326;28;20052;-64
2024/01/25 02:30:07;;;;;;;1999.90;999.90;;;;;;;-0.94;84.28;96362.84;5113468;28;20059;-66
2024/01/25 02:32:35;;;;;;;1999.90;999.90;;;;;;;-0.91;83.67;96373.13;5113426;28;20148;-65
2024/01/25 02:35:02;;;;;;;1999.90;999.90;;;;;;;-0.92;83.75;96380.00;5113351;28;20122;-68
2024/01/25 02:37:29;;;;;;;1999.90;999.90;;;;;;;-0.98;83.41;96379.97;5113296;28;20083;-64
2024/01/25 02:39:57;;;;;;;1999.90;999.90;;;;;;;-0.93;83.36;96362.00;5113331;28;20056;-66
2024/01/25 02:42:24;;;;;;;1999.90;999.90;;;;;;;-1.03;83.63;96361.94;5113379;28;20043;-68
2024/01/25 02:44:51;;;;;;;1999.90;999.90;;;;;;;-0.97;83.36;96352.56;5113346;28;20040;-67
2024/01/25 02:47:18;;;;;;;1999.90;999.90;;;;;;;-1.00;83.52;96350.00;5113110;28;20058;-66
2024/01/25 02:49:45;;;;;;;1999.90;999.90;;;;;;;-0.98;83.19;96343.13;5113170;28;20047;-64
2024/01/25 02:52:12;;;;;;;1999.90;999.90;;;;;;;-1.10;83.63;96361.91;5113223;28;20109;-67
2024/01/25 02:54:39;;;;;;;1999.90;999.90;;;;;;;-1.10;83.73;96361.91;5113090;28;20058;-65
2024/01/25 02:57:07;;;;;;;1999.90;999.90;;;;;;;-1.10;84.10;96364.47;5113066;28;20054;-64
2024/01/25 03:00:15;;;;;;;1999.90;999.90;;;;;;;-1.11;84.23;96365.34;5113142;28;20086;-67
2024/01/25 03:02:41;;;;;;;1999.90;999.90;;;;;;;-1.07;84.04;96360.22;5113576;28;20051;-66
2024/01/25 03:05:09;;;;;;;1999.90;999.90;;;;;;;-1.07;83.60;96349.09;5113416;28;20047;-66
2024/01/25 03:07:36;;;;;;;1999.90;999.90;;;;;;;-0.99;83.29;96326.00;5113126;28;20474;-67
2024/01/25 03:10:02;;;;;;;1999.90;999.90;;;;;;;-1.09;82.75;96346.50;5116643;28;20051;-65
2024/01/25 03:12:30;;;;;;;1999.90;999.90;;;;;;;-1.19;83.49;96361.03;5116995;28;20043;-66
2024/01/25 03:14:57;;;;;;;1999.90;999.90;;;;;;;-1.14;83.83;96350.78;5117041;28;20090;-65
2024/01/25 03:17:24;;;;;;;1999.90;999.90;;;;;;;-1.22;83.95;96335.31;5116949;28;20047;-67
2024/01/25 03:19:51;;;;;;;1999.90;999.90;;;;;;;-1.40;84.25;96336.94;5116927;28;20048;-63
2024/01/25 03:22:18;;;;;;;1999.90;999.90;;;;;;;-1.38;85.28;96339.53;5117215;28;20116;-66
2024/01/25 03:24:45;;;;;;;1999.90;999.90;;;;;;;-1.34;85.39;96353.22;5116662;28;20101;-66
2024/01/25 03:27:13;;;;;;;1999.90;999.90;;;;;;;-1.25;85.18;96335.31;5116581;28;20051;-64
2024/01/25 03:29:43;;;;;;;1999.90;999.90;;;;;;;-1.31;84.98;96332.69;5116705;28;20043;-68
2024/01/25 03:32:10;;;;;;;;;;;;;;;-1.31;84.91;96325.00;5117019;28;20040;-63
2024/01/25 03:34:37;;;;;;;1999.90;999.90;;;;;;;-1.34;85.13;96355.78;5116513;28;20254;-65
2024/01/25 03:37:04;;;;;;;1999.90;999.90;;;;;;;-1.32;85.17;96357.50;5116534;28;20054;-66
2024/01/25 03:39:31;;;;;;;1999.90;999.90;;;;;;;-1.22;85.11;96326.75;5116592;28;20047;-67
2024/01/25 03:41:58;;;;;;;1999.90;999.90;;;;;;;-1.20;84.37;96325.06;5116469;28;20127;-65
2024/01/25 03:44:25;;;;;;;1999.90;999.90;;;;;;;-1.18;84.49;96338.75;5098314;28;20086;-66
2024/01/25 03:46:57;;;;;;;1999.90;999.90;;;;;;;-1.12;84.09;96337.94;5116189;28;20524;-67
2024/01/25 03:49:24;;;;;;;1999.90;999.90;;;;;;;-1.21;83.93;96313.09;5116225;28;20044;-63
2024/01/25 03:51:51;;;;;;;1999.90;999.90;;;;;;;-1.25;84.26;96344.72;5116065;28;20044;-62
2024/01/25 03:54:18;;;;;;;1999.90;999.90;;;;;;;-1.23;84.84;96341.31;5116199;28;20089;-67
2024/01/25 03:56:45;;;;;;;1999.90;999.90;;;;;;;-1.14;84.53;96345.66;5116071;28;20044;-66
2024/01/25 03:59:13;;;;;;;1999.90;999.90;;;;;;;-1.18;84.32;96337.06;5116073;28;20079;-65
2024/01/25 04:01:44;;;;;;;1999.90;999.90;;;;;;;-1.19;84.42;96325.06;5115969;28;20044;-68
2024/01/25 04:04:13;;;;;;;1999.90;999.90;;;;;;;-1.12;84.63;96336.22;5116036;28;20084;-64
2024/01/25 04:06:42;;;;;;;1999.90;999.90;;;;;;;-1.00;84.83;96339.72;5115867;28;20052;-66
2024/01/25 04:09:09;;;;;;;1999.90;999.90;;;;;;;-1.02;85.50;96342.28;5115953;28;20055;-64
2024/01/25 04:11:36;;;;;;;1999.90;999.90;;;;;;;-1.04;86.25;96337.13;5115665;28;20062;-64
2024/01/25 04:14:04;;;;;;;1999.90;999.90;;;;;;;-0.98;86.13;96322.59;5115722;28;20580;-68
2024/01/25 04:16:31;;;;;;;1999.90;999.90;;;;;;;-0.94;86.69;96314.91;5115897;28;20047;-65
2024/01/25 04:18:58;;;;;;;1999.90;999.90;;;;;;;-0.79;86.67;96331.22;5115413;28;20126;-68
2024/01/25 04:21:28;;;;;;;1999.90;999.90;;;;;;;-0.61;86.36;96329.59;5114628;28;20123;-66
2024/01/25 04:23:55;;;;;;;1999.90;999.90;;;;;;;-0.59;84.81;96323.59;5115525;28;20051;-62
2024/01/25 04:26:22;;;;;;;1999.90;999.90;;;;;;;-0.53;86.24;96320.16;5115550;28;20276;-68
2024/01/25 04:28:49;;;;;;;1999.90;999.90;;;;;;;-0.54;87.10;96323.59;5115570;28;20509;-61
2024/01/25 04:31:16;;;;;;;1999.90;999.90;;;;;;;-0.50;87.30;96325.31;5115654;28;20050;-67
2024/01/25 04:33:43;;;;;;;1999.90;999.90;;;;;;;-0.47;86.94;96309.91;5115445;28;20054;-67
2024/01/25 04:36:10;;;;;;;1999.90;999.90;;;;;;;-0.47;87.64;96319.31;5115356;28;20081;-66
2024/01/25 04:38:38;;;;;;;1999.90;999.90;;;;;;;-0.48;89.11;96315.88;5115318;28;20050;-64
2024/01/25 04:41:06;;;;;;;1999.90;999.90;;;;;;;-0.42;88.99;96304.78;5115316;28;20051;-66
2024/01/25 04:43:36;;;;;;;1999.90;999.90;;;;;;;-0.38;89.29;96309.06;5115220;28;20052;-69
2024/01/25 04:46:03;;;;;;;;;;;;;;;-0.37;88.61;96305.63;5115687;28;20499;-64
2024/01/25 04:48:30;;;;;;;1999.90;999.90;;;;;;;0.12;89.52;96299.66;5115093;28;20027;-64
2024/01/25 04:50:58;;;;;;;1999.90;999.90;;;;;;;0.73;87.24;96293.56;5115093;28;20552;-66
2024/01/25 04:53:25;;;;;;;1999.90;999.90;;;;;;;1.31;84.54;96308.78;5114695;28;20489;-66
2024/01/25 04:55:55;;;;;;;1999.90;999.90;;;;;;;2.07;78.94;96308.31;5114977;28;20087;-68
2024/01/25 04:58:22;;;;;;;1999.90;999.90;;;;;;;2.51;76.65;96298.47;5114892;28;20409;-65
2024/01/25 05:00:52;;;;;;;1999.90;999.90;;;;;;;3.34;71.41;96296.69;5114924;28;20051;-67
2024/01/25 05:03:19;;;;;;;1999.90;999.90;;;;;;;3.73;68.01;96278.88;5114872;28;20508;-65
2024/01/25 05:05:46;;;;;;;1999.90;999.90;;;;;;;3.99;66.88;96303.50;5114762;28;20051;-68
2024/01/25 05:08:13;;;;;;;1999.90;999.90;;;;;;;3.73;64.70;96311.66;5114683;28;20386;-68
2024/01/25 05:10:41;;;;;;;1999.90;999.90;;;;;;;3.39;64.77;96298.31;5114776;28;20048;-66
2024/01/25 05:13:10;;;;;;;1999.90;999.90;;;;;;;3.15;65.50;96290.00;5114534;28;20558;-65
2024/01/25 05:15:37;;;;;;;1999.90;999.90;;;;;;;2.98;66.62;96287.59;5114646;28;20047;-67
2024/01/25 05:18:05;;;;;;;1999.90;999.90;;;;;;;2.89;67.70;96293.75;5114565;28;20047;-66
2024/01/25 05:20:33;;;;;;;1999.90;999.90;;;;;;;2.74;68.54;96291.34;5114648;28;20059;-64
2024/01/25 05:23:01;;;;;;;1999.90;999.90;;;;;;;2.59;67.84;96303.53;5114568;28;20134;-69
2024/01/25 05:25:28;;;;;;;1999.90;999.90;;;;;;;2.48;67.70;96305.38;5114678;28;20077;-64
2024/01/25 05:27:55;;;;;;;1999.90;999.90;;;;;;;2.30;68.47;96314.13;5114544;28;20050;-66
2024/01/25 05:30:26;;;;;;;1999.90;999.90;;;;;;;2.02;69.73;96325.56;5114217;28;20066;-66
2024/01/25 05:32:54;;;;;;;1999.90;999.90;;;;;;;1.84;70.99;96326.53;5113990;28;20409;-67
2024/01/25 05:35:21;;;;;;;1999.90;999.90;;;;;;;1.86;71.43;96330.81;5114293;28;20054;-66
2024/01/25 05:37:48;;;;;;;1999.90;999.90;;;;;;;1.91;71.62;96317.03;5114370;28;20052;-67
2024/01/25 05:40:16;;;;;;;1999.90;999.90;;;;;;;1.86;71.61;96327.38;5114104;28;20046;-66
2024/01/25 05:42:44;;;;;;;1999.90;999.90;;;;;;;1.84;71.74;96322.22;5114038;28;20374;-66
2024/01/25 05:45:15;;;;;;;1999.90;999.90;;;;;;;1.88;71.68;96325.66;5114184;28;20055;-67
2024/01/25 05:47:43;;;;;;;1999.90;999.90;;;;;;;1.87;71.57;96332.53;5114247;28;20102;-68
2024/01/25 05:50:11;;;;;;;1999.90;999.90;;;;;;;1.86;71.45;96341.13;5114280;28;20051;-65
2024/01/25 05:52:38;;;;;;;1999.90;999.90;;;;;;;1.81;72.17;96329.13;5113743;28;20060;-67
2024/01/25 05:55:08;;;;;;;1999.90;999.90;;;;;;;1.61;73.16;96328.41;5113786;28;20064;-64
2024/01/25 05:57:37;;;;;;;1999.90;999.90;;;;;;;1.57;74.68;96336.16;5113949;28;20496;-66
2024/01/25 06:00:06;;;;;;;1999.90;999.90;;;;;;;1.76;74.48;96342.94;5114201;28;20045;-65
2024/01/25 06:02:33;;;;;;;1999.90;999.90;;;;;;;1.91;73.58;96337.66;5114094;28;20047;-66
2024/01/25 06:05:01;;;;;;;1999.90;999.90;;;;;;;1.95;72.69;96332.47;5113661;28;20043;-65
2024/01/25 06:07:29;;;;;;;1999.90;999.90;;;;;;;1.95;72.78;96340.22;5113607;28;20048;-63
2024/01/25 06:09:56;;;;;;;1999.90;999.90;;;;;;;1.94;73.56;96342.81;5113715;28;20139;-64
2024/01/25 06:12:23;;;;;;;1999.90;999.90;;;;;;;2.02;73.98;96343.63;5113575;28;20048;-66
2024/01/25 06:14:51;;;;;;;1999.90;999.90;;;;;;;2.11;73.53;96358.19;5113517;28;20039;-66
2024/01/25 06:17:18;;;;;;;1999.90;999.90;;;;;;;2.10;73.65;96359.03;5113626;28;20043;-68
2024/01/25 06:19:45;;;;;;;1999.90;999.90;;;;;;;2.40;73.91;96357.94;5113463;28;20489;-68
2024/01/25 06:22:16;;;;;;;1999.90;999.90;;;;;;;3.26;71.51;96361.41;5113460;28;20109;-66
2024/01/25 06:24:43;;;;;;;1999.90;999.90;;;;;;;4.00;68.15;96372.50;5113505;28;20422;-68
2024/01/25 06:27:11;;;;;;;1999.90;999.90;;;;;;;4.39;66.59;96376.25;5113446;28;20047;-64
2024/01/25 06:29:38;;;;;;;1999.90;999.90;;;;;;;5.38;63.66;96384.00;5113329;28;20101;-65
2024/01/25 06:32:06;;;;;;;1999.90;999.90;;;;;;;5.93;60.70;96381.16;5113350;28;20052;-68
2024/01/25 06:34:34;;;;;;;1999.90;999.90;;;;;;;6.37;60.01;96387.13;5113300;28;20059;-67
2024/01/25 06:37:01;;;;;;;1999.90;999.90;;;;;;;7.05;57.75;96375.03;5113409;28;20040;-69
2024/01/25 06:39:29;;;;;;;1999.90;999.90;;;;;;;8.22;53.25;96381.31;5113249;28;20047;-67
2024/01/25 06:41:57;;;;;;;1999.90;999.90;;;;;;;8.63;50.51;96356.56;5113573;28;20128;-66
2024/01/25 06:44:24;;;;;;;1999.90;999.90;;;;;;;8.52;50.53;96378.59;5098302;28;20058;-68
2024/01/25 06:46:51;;;;;;;1999.90;999.90;;;;;;;8.58;49.80;96373.22;5117539;28;20051;-65
2024/01/25 06:49:19;;;;;;;1999.90;999.90;;;;;;;9.08;49.68;96378.53;5117795;28;20056;-67
2024/01/25 06:51:45;;;;;;;1999.90;999.90;;;;;;;10.52;46.72;96391.59;5117423;28;20086;-66
2024/01/25 06:54:13;;;;;;;1999.90;999.90;;;;;;;12.24;42.25;96400.84;5117176;28;20459;-66
2024/01/25 06:56:41;;;;;;;1999.90;999.90;;;;;;;12.30;41.35;96402.31;5117337;28;20050;-67
2024/01/25 06:59:08;;;;;;;1999.90;999.90;;;;;;;12.24;41.43;96408.69;5117258;28;20043;-68
2024/01/25 07:01:36;;;;;;;1999.90;999.90;;;;;;;11.63;42.38;96427.97;5117234;28;20040;-65
2024/01/25 07:04:03;;;;;;;1999.90;999.90;;;;;;;11.53;42.58;96433.69;5117235;28;20071;-68
2024/01/25 07:06:30;;;;;;;1999.90;999.90;;;;;;;12.64;41.54;96434.81;5117065;28;20048;-66
2024/01/25 07:08:57;;;;;;;1999.90;999.90;;;;;;;14.16;37.31;96433.34;5117011;28;20134;-67
2024/01/25 07:11:24;;;;;;;1999.90;999.90;;;;;;;15.79;35.21;96441.72;5117138;28;20048;-68
2024/01/25 07:13:53;;;;;;;1999.90;999.90;;;;;;;16.89;32.33;96445.53;5099120;28;20043;-68
2024/01/25 07:16:21;;;;;;;1999.90;999.90;;;;;;;17.03;31.76;96432.25;5116936;28;20043;-67
2024/01/25 07:18:48;;;;;;;1999.90;999.90;;;;;;;17.47;31.61;96420.63;5116846;28;20466;-64
2024/01/25 07:21:16;;;;;;;1999.90;999.90;;;;;;;17.93;30.82;96401.59;5116806;28;20090;-68
2024/01/25 07:23:43;;;;;;;1999.90;999.90;;;;;;;17.27;30.98;96396.38;5116835;28;20047;-66
2024/01/25 07:26:10;;;;;;;1999.90;999.90;;;;;;;18.05;30.30;96397.22;5116857;28;20048;-63
2024/01/25 07:28:38;;;;;;;1999.90;999.90;;;;;;;19.56;28.49;96396.03;5116854;28;20048;-66
2024/01/25 07:31:06;;;;;;;1999.90;999.90;;;;;;;19.75;27.76;96381.34;5116662;28;20050;-64
2024/01/25 07:33:33;;;;;;;1999.90;999.90;;;;;;;19.91;26.55;96388.97;5116654;28;20050;-66
2024/01/25 07:36:00;;;;;;;1999.90;999.90;;;;;;;20.12;25.94;96384.75;5116681;28;20050;-64
2024/01/25 07:38:27;;;;;;;1999.90;999.90;;;;;;;19.81;26.09;96386.16;5116416;28;20051;-65
2024/01/25 07:40:55;;;;;;;1999.90;999.90;;;;;;;20.60;26.07;96386.25;5116879;28;20043;-67
2024/01/25 07:43:22;;;;;;;1999.90;999.90;;;;;;;19.60;25.94;96387.84;5116423;28;20050;-68
2024/01/25 07:45:49;;;;;;;1999.90;999.90;;;;;;;19.88;26.71;96383.91;5116448;28;20188;-68
2024/01/25 07:48:18;;;;;;;1999.90;999.90;;;;;;;20.82;25.27;96392.44;5116294;28;20174;-67
2024/01/25 07:50:45;;;;;;;1999.90;999.90;;;;;;;21.77;24.00;96389.97;5116224;28;20048;-67
2024/01/25 07:53:14;;;;;;;1999.90;999.90;;;;;;;22.75;23.72;96390.44;5116061;28;20143;-64
2024/01/25 07:55:41;;;;;;;1999.90;999.90;;;;;;;22.43;23.79;96392.28;5115881;28;20062;-69
2024/01/25 07:58:08;;;;;;;1999.90;999.90;;;;;;;23.19;22.99;96398.00;5116074;28;20481;-68
2024/01/25 08:00:35;;;;;;;1999.90;999.90;;;;;;;22.55;23.53;96387.69;5115976;28;20448;-69
2024/01/25 08:03:03;;;;;;;1999.90;999.90;;;;;;;21.92;22.88;96384.28;5116105;28;20079;-66
2024/01/25 08:05:31;;;;;;;1999.90;999.90;;;;;;;22.81;22.21;96385.38;5115958;28;20139;-64
2024/01/25 08:07:58;;;;;;;1999.90;999.90;;;;;;;23.62;21.26;96387.84;5115952;28;20127;-69
2024/01/25 08:10:28;;;;;;;1999.90;999.90;;;;;;;25.01;20.18;96384.53;5115848;28;20077;-66
2024/01/25 08:12:58;;;;;;;1999.90;999.90;;;;;;;23.96;20.27;96387.31;5115932;28;20054;-69
2024/01/25 08:15:25;;;;;;;1999.90;999.90;;;;;;;24.27;20.56;96393.41;5115789;28;20043;-65
2024/01/25 08:17:53;;;;;;;1999.90;999.90;;;;;;;24.78;20.16;96385.81;5115724;28;20056;-64
2024/01/25 08:20:20;;;;;;;1999.90;999.90;;;;;;;24.78;19.28;96387.63;5115798;28;20069;-65
2024/01/25 08:22:49;;;;;;;1999.90;999.90;;;;;;;24.98;19.91;96386.50;5115755;28;20059;-67
2024/01/25 08:25:16;;;;;;;1999.90;999.90;;;;;;;24.68;19.88;96379.69;5115724;28;20059;-62
2024/01/25 08:27:43;;;;;;;1999.90;999.90;;;;;;;23.96;20.54;96378.50;5115546;28;20047;-65
2024/01/25 08:30:11;;;;;;;1999.90;999.90;;;;;;;23.99;20.30;96399.56;5115380;28;20493;-67
2024/01/25 08:32:38;;;;;;;1999.90;999.90;;;;;;;23.29;21.51;96389.97;5115595;28;20051;-66
2024/01/25 08:35:06;;;;;;;1999.90;999.90;;;;;;;23.61;21.14;96380.84;5115513;28;20055;-67
2024/01/25 08:37:36;;;;;;;1999.90;999.90;;;;;;;23.02;21.24;96380.91;5115625;28;20079;-65
2024/01/25 08:40:06;;;;;;;1999.90;999.90;;;;;;;22.57;21.04;96389.25;5115446;28;20046;-61
2024/01/25 08:42:33;;;;;;;1999.90;999.90;;;;;;;21.38;22.44;96373.72;5115358;28;20131;-66
2024/01/25 08:45:00;;;;;;;1999.90;999.90;;;;;;;20.41;24.02;96384.25;5115189;28;20075;-65
2024/01/25 08:47:27;;;;;;;1999.90;999.90;;;;;;;20.10;24.68;96374.25;5115154;28;20048;-66
2024/01/25 08:49:54;;;;;;;1999.90;999.90;;;;;;;19.34;26.11;96366.81;5115027;28;20054;-66
2024/01/25 08:52:21;;;;;;;1999.90;999.90;;;;;;;19.15;27.02;96381.50;5114830;28;20048;-65
2024/01/25 08:54:48;;;;;;;1999.90;999.90;;;;;;;18.57;27.30;96385.66;5114966;28;20489;-68
2024/01/25 08:57:17;;;;;;;1999.90;999.90;;;;;;;18.15;28.07;96372.78;5114985;28;20481;-67
2024/01/25 08:59:44;;;;;;;1999.90;999.90;;;;;;;17.77;28.94;96379.81;5115102;28;20130;-65
2024/01/25 09:02:11;;;;;;;1999.90;999.90;;;;;;;17.67;28.69;96380.44;5114997;28;20047;-64
2024/01/25 09:04:40;;;;;;;1999.90;999.90;;;;;;;17.14;29.95;96370.81;5115241;28;20043;-66
2024/01/25 09:07:07;;;;;;;1999.90;999.90;;;;;;;16.86;29.94;96362.03;5095836;28;20047;-68
2024/01/25 09:09:34;;;;;;;1999.90;999.90;;;;;;;16.77;30.12;96367.94;5114696;28;20051;-68
2024/01/25 09:12:01;;;;;;;1999.90;999.90;;;;;;;16.44;30.98;96366.56;5114884;28;20059;-65
2024/01/25 09:14:32;;;;;;;1999.90;999.90;;;;;;;16.42;30.31;96374.56;5114670;28;20123;-66
2024/01/25 09:16:59;;;;;;;1999.90;999.90;;;;;;;16.35;30.54;96370.63;5114542;28;20043;-66
2024/01/25 09:19:26;;;;;;;1999.90;999.90;;;;;;;15.88;29.62;96365.59;5114477;28;20501;-68
2024/01/25 09:21:53;;;;;;;1999.90;999.90;;;;;;;15.32;32.21;96364.53;5114531;28;20043;-62
2024/01/25 09:24:20;;;;;;;1999.90;999.90;;;;;;;15.24;32.40;96349.22;5114431;28;20489;-64
2024/01/25 09:26:47;;;;;;;1999.90;999.90;;;;;;;15.23;32.00;96363.31;5114331;28;20051;-68
2024/01/25 09:29:14;;;;;;;1999.90;999.90;;;;;;;14.82;33.08;96372.72;5114246;28;20078;-67
2024/01/25 09:31:43;;;;;;;1999.90;999.90;;;;;;;14.67;33.57;96374.41;5114365;28;20043;-66
2024/01/25 09:34:10;;;;;;;1999.90;999.90;;;;;;;14.39;31.84;96376.00;5114555;28;20048;-61
2024/01/25 09:36:37;;;;;;;1999.90;999.90;;;;;;;14.11;30.71;96385.38;5114188;28;20039;-66
2024/01/25 09:39:05;;;;;;;1999.90;999.90;;;;;;;13.93;30.74;96385.47;5114175;28;20065;-67
2024/01/25 09:41:32;;;;;;;1999.90;999.90;;;;;;;13.91;31.22;96384.72;5114041;28;20040;-64
2024/01/25 09:43:59;;;;;;;1999.90;999.90;;;;;;;13.75;31.42;96376.78;5114093;28;20043;-68
2024/01/25 09:46:27;;;;;;;1999.90;999.90;;;;;;;13.63;31.70;96368.63;5114042;28;20048;-66
2024/01/25 09:48:55;;;;;;;1999.90;999.90;;;;;;;13.54;31.33;96368.28;5113946;28;20050;-66
2024/01/25 09:51:24;;;;;;;1999.90;999.90;;;;;;;13.45;31.37;96372.22;5113908;28;20501;-63
2024/01/25 09:53:55;;;;;;;1999.90;999.90;;;;;;;13.18;31.42;96367.47;5113777;28;20104;-65
2024/01/25 09:56:23;;;;;;;;;;;;;;;13.17;32.14;96366.59;5114345;28;20097;-65
2024/01/25 09:58:51;;;;;;;1999.90;999.90;;;;;;;12.91;32.20;96375.81;5113877;28;20281;-66
2024/01/25 10:01:18;;;;;;;1999.90;999.90;;;;;;;12.91;32.67;96371.38;5113879;28;20043;-67
2024/01/25 10:03:46;;;;;;;1999.90;999.90;;;;;;;12.81;33.06;96362.28;5113717;28;20048;-63
2024/01/25 10:06:15;;;;;;;1999.90;999.90;;;;;;;12.74;32.19;96362.56;5113676;28;20440;-68
2024/01/25 10:08:42;;;;;;;1999.90;999.90;;;;;;;12.57;32.55;96365.19;5113764;28;20134;-66
2024/01/25 10:11:11;;;;;;;1999.90;999.90;;;;;;;12.37;32.85;96361.75;5113937;28;20051;-65
2024/01/25 10:13:42;;;;;;;1999.90;999.90;;;;;;;12.22;32.59;96353.69;5113724;28;20092;-65
2024/01/25 10:16:12;;;;;;;1999.90;999.90;;;;;;;11.89;33.69;96351.69;5113576;28;20054;-69
2024/01/25 10:18:41;;;;;;;1999.90;999.90;;;;;;;11.70;33.43;96343.84;5113631;28;20047;-65
2024/01/25 10:21:10;;;;;;;1999.90;999.90;;;;;;;11.67;33.48;96339.59;5113452;28;20079;-65
2024/01/25 10:23:39;;;;;;;1999.90;999.90;;;;;;;11.56;33.31;96341.88;5113650;28;20122;-68
2024/01/25 10:26:06;;;;;;;1999.90;999.90;;;;;;;11.52;33.25;96343.75;5113588;28;20485;-64
2024/01/25 10:28:33;;;;;;;1999.90;999.90;;;;;;;11.40;33.48;96332.06;5113623;28;20078;-65
2024/01/25 10:31:04;;;;;;;1999.90;999.90;;;;;;;11.22;34.60;96359.91;5113271;28;20417;-65
2024/01/25 10:33:35;;;;;;;1999.90;999.90;;;;;;;11.34;35.63;96342.81;5113463;28;20458;-65
2024/01/25 10:36:02;;;;;;;1999.90;999.90;;;;;;;11.56;32.99;96336.63;5113583;28;20458;-67
2024/01/25 10:38:32;;;;;;;1999.90;999.90;;;;;;;11.78;34.82;96333.00;5113425;28;20077;-68
2024/01/25 10:41:02;;;;;;;1999.90;999.90;;;;;;;11.96;33.82;96331.31;5113488;28;20055;-65
2024/01/25 10:43:31;;;;;;;1999.90;999.90;;;;;;;12.08;32.54;96316.81;5113434;28;20405;-67
2024/01/25 10:46:00;;;;;;;1999.90;999.90;;;;;;;12.20;32.66;96328.47;5113347;28;20051;-66
2024/01/25 10:48:27;;;;;;;1999.90;999.90;;;;;;;12.44;32.90;96310.72;5113486;28;20075;-65
2024/01/25 10:50:57;;;;;;;1999.90;999.90;;;;;;;12.58;32.10;96323.13;5113197;28;20090;-64
2024/01/25 10:53:26;;;;;;;1999.90;999.90;;;;;;;12.54;31.92;96316.34;5113089;28;20104;-67
2024/01/25 10:55:53;;;;;;;1999.90;999.90;;;;;;;12.64;32.58;96299.22;5113218;28;20052;-65
2024/01/25 10:58:22;;;;;;;1999.90;999.90;;;;;;;12.69;31.91;96316.50;5113237;28;20501;-66